sensor_id;sensor_type;location;lat;lon;timestamp;temperature;humidity
16285;DHT22;8250;52.426;9.450;2022-08-19T00:00:30;20.80;99.90
16285;DHT22;8250;52.426;9.450;2022-08-19T00:02:57;20.80;99.90
16285;DHT22;8250;52.426;9.450;2022-08-19T00:05:24;20.80;99.90
16285;DHT22;8250;52.426;9.450;2022-08-19T00:07:51;20.80;99.90
16285;DHT22;8250;52.426;9.450;2022-08-19T00:10:20;20.80;99.90
16285;DHT22;8250;52.426;9.450;2022-08-19T00:12:47;20.70;99.90
16285;DHT22;8250;52.426;9.450;2022-08-19T00:15:16;20.70;99.90
16285;DHT22;8250;52.426;9.450;2022-08-19T00:17:44;20.80;99.90
16285;DHT22;8250;52.426;9.450;2022-08-19T00:20:21;20.70;99.90
16285;DHT22;8250;52.426;9.450;2022-08-19T00:22:49;20.70;99.90
16285;DHT22;8250;52.426;9.450;2022-08-19T00:25:17;20.80;99.90
16285;DHT22;8250;52.426;9.450;2022-08-19T00:27:45;20.70;99.90
16285;DHT22;8250;52.426;9.450;2022-08-19T00:30:13;20.70;99.90
16285;DHT22;8250;52.426;9.450;2022-08-19T00:32:40;20.70;99.90
16285;DHT22;8250;52.426;9.450;2022-08-19T00:35:08;20.70;99.90
16285;DHT22;8250;52.426;9.450;2022-08-19T00:37:36;20.70;99.90
16285;DHT22;8250;52.426;9.450;2022-08-19T00:40:05;20.70;99.90
16285;DHT22;8250;52.426;9.450;2022-08-19T00:42:32;20.70;99.90
16285;DHT22;8250;52.426;9.450;2022-08-19T00:45:01;20.70;99.90
16285;DHT22;8250;52.426;9.450;2022-08-19T00:47:28;20.70;99.90
16285;DHT22;8250;52.426;9.450;2022-08-19T00:49:57;20.70;99.90
16285;DHT22;8250;52.426;9.450;2022-08-19T00:52:27;20.60;99.90
16285;DHT22;8250;52.426;9.450;2022-08-19T00:54:56;20.70;99.90
16285;DHT22;8250;52.426;9.450;2022-08-19T00:57:27;20.60;99.90
16285;DHT22;8250;52.426;9.450;2022-08-19T00:59:56;20.60;99.90
16285;DHT22;8250;52.426;9.450;2022-08-19T01:02:27;20.60;99.90
16285;DHT22;8250;52.426;9.450;2022-08-19T01:04:54;20.50;99.90
16285;DHT22;8250;52.426;9.450;2022-08-19T01:07:21;20.50;99.90
16285;DHT22;8250;52.426;9.450;2022-08-19T01:09:49;20.40;99.90
16285;DHT22;8250;52.426;9.450;2022-08-19T01:12:17;20.40;99.90
16285;DHT22;8250;52.426;9.450;2022-08-19T01:14:45;20.40;99.90
16285;DHT22;8250;52.426;9.450;2022-08-19T01:17:12;20.40;99.90
16285;DHT22;8250;52.426;9.450;2022-08-19T01:19:45;20.40;99.90
16285;DHT22;8250;52.426;9.450;2022-08-19T01:22:16;20.40;99.90
16285;DHT22;8250;52.426;9.450;2022-08-19T01:24:47;20.40;99.90
16285;DHT22;8250;52.426;9.450;2022-08-19T01:27:14;20.30;99.90
16285;DHT22;8250;52.426;9.450;2022-08-19T01:29:43;20.30;99.90
16285;DHT22;8250;52.426;9.450;2022-08-19T01:32:12;20.30;99.90
16285;DHT22;8250;52.426;9.450;2022-08-19T01:34:40;20.30;99.90
16285;DHT22;8250;52.426;9.450;2022-08-19T01:37:09;20.30;99.90
16285;DHT22;8250;52.426;9.450;2022-08-19T01:39:38;20.30;99.90
16285;DHT22;8250;52.426;9.450;2022-08-19T01:42:08;20.30;99.90
16285;DHT22;8250;52.426;9.450;2022-08-19T01:44:37;20.30;99.90
16285;DHT22;8250;52.426;9.450;2022-08-19T01:47:06;20.30;99.90
16285;DHT22;8250;52.426;9.450;2022-08-19T01:49:33;20.30;99.90
16285;DHT22;8250;52.426;9.450;2022-08-19T01:52:01;20.30;99.90
16285;DHT22;8250;52.426;9.450;2022-08-19T01:54:27;20.20;99.90
16285;DHT22;8250;52.426;9.450;2022-08-19T01:56:59;20.20;99.90
16285;DHT22;8250;52.426;9.450;2022-08-19T01:59:28;20.20;99.90
16285;DHT22;8250;52.426;9.450;2022-08-19T02:01:55;20.20;99.90
16285;DHT22;8250;52.426;9.450;2022-08-19T02:04:22;20.20;99.90
16285;DHT22;8250;52.426;9.450;2022-08-19T02:06:50;20.10;99.90
16285;DHT22;8250;52.426;9.450;2022-08-19T02:09:17;20.10;99.90
16285;DHT22;8250;52.426;9.450;2022-08-19T02:11:44;20.20;99.90
16285;DHT22;8250;52.426;9.450;2022-08-19T02:14:11;20.20;99.90
16285;DHT22;8250;52.426;9.450;2022-08-19T02:16:40;20.20;99.90
16285;DHT22;8250;52.426;9.450;2022-08-19T02:19:07;20.20;99.90
16285;DHT22;8250;52.426;9.450;2022-08-19T02:21:34;20.20;99.90
16285;DHT22;8250;52.426;9.450;2022-08-19T02:24:02;20.20;99.90
16285;DHT22;8250;52.426;9.450;2022-08-19T02:26:29;20.20;99.90
16285;DHT22;8250;52.426;9.450;2022-08-19T02:28:56;20.20;99.90
16285;DHT22;8250;52.426;9.450;2022-08-19T02:31:24;20.10;99.90
16285;DHT22;8250;52.426;9.450;2022-08-19T02:33:54;20.10;99.90
16285;DHT22;8250;52.426;9.450;2022-08-19T02:36:21;20.10;99.90
16285;DHT22;8250;52.426;9.450;2022-08-19T02:38:48;20.10;99.90
16285;DHT22;8250;52.426;9.450;2022-08-19T02:41:17;20.10;99.90
16285;DHT22;8250;52.426;9.450;2022-08-19T02:43:45;20.10;99.90
16285;DHT22;8250;52.426;9.450;2022-08-19T02:46:14;20.10;99.90
16285;DHT22;8250;52.426;9.450;2022-08-19T02:48:43;20.10;99.90
16285;DHT22;8250;52.426;9.450;2022-08-19T02:51:17;20.10;99.90
16285;DHT22;8250;52.426;9.450;2022-08-19T02:53:44;20.10;99.90
16285;DHT22;8250;52.426;9.450;2022-08-19T02:56:11;20.00;99.90
16285;DHT22;8250;52.426;9.450;2022-08-19T02:58:38;20.00;99.90
16285;DHT22;8250;52.426;9.450;2022-08-19T03:01:05;20.00;99.90
16285;DHT22;8250;52.426;9.450;2022-08-19T03:03:32;20.00;99.90
16285;DHT22;8250;52.426;9.450;2022-08-19T03:06:04;20.00;99.90
16285;DHT22;8250;52.426;9.450;2022-08-19T03:08:33;19.90;99.90
16285;DHT22;8250;52.426;9.450;2022-08-19T03:11:00;20.00;99.90
16285;DHT22;8250;52.426;9.450;2022-08-19T03:13:27;20.00;99.90
16285;DHT22;8250;52.426;9.450;2022-08-19T03:15:54;20.00;99.90
16285;DHT22;8250;52.426;9.450;2022-08-19T03:18:21;20.00;99.90
16285;DHT22;8250;52.426;9.450;2022-08-19T03:20:50;19.90;99.90
16285;DHT22;8250;52.426;9.450;2022-08-19T03:23:18;19.90;99.90
16285;DHT22;8250;52.426;9.450;2022-08-19T03:25:48;19.90;99.90
16285;DHT22;8250;52.426;9.450;2022-08-19T03:28:16;19.90;99.90
16285;DHT22;8250;52.426;9.450;2022-08-19T03:30:55;19.80;99.90
16285;DHT22;8250;52.426;9.450;2022-08-19T03:33:23;19.70;99.90
16285;DHT22;8250;52.426;9.450;2022-08-19T03:36:00;19.70;99.90
16285;DHT22;8250;52.426;9.450;2022-08-19T03:38:28;19.70;99.90
16285;DHT22;8250;52.426;9.450;2022-08-19T03:40:56;19.70;99.90
16285;DHT22;8250;52.426;9.450;2022-08-19T03:43:23;19.60;99.90
16285;DHT22;8250;52.426;9.450;2022-08-19T03:45:59;19.70;99.90
16285;DHT22;8250;52.426;9.450;2022-08-19T03:48:28;19.60;99.90
16285;DHT22;8250;52.426;9.450;2022-08-19T03:50:56;19.60;99.90
16285;DHT22;8250;52.426;9.450;2022-08-19T03:53:24;19.60;99.90
16285;DHT22;8250;52.426;9.450;2022-08-19T03:55:52;19.60;99.90
16285;DHT22;8250;52.426;9.450;2022-08-19T03:58:21;19.50;99.90
16285;DHT22;8250;52.426;9.450;2022-08-19T04:00:48;19.50;99.90
16285;DHT22;8250;52.426;9.450;2022-08-19T04:03:15;19.50;99.90
16285;DHT22;8250;52.426;9.450;2022-08-19T04:05:44;19.50;99.90
16285;DHT22;8250;52.426;9.450;2022-08-19T04:08:11;19.40;99.90
16285;DHT22;8250;52.426;9.450;2022-08-19T04:10:38;19.40;99.90
16285;DHT22;8250;52.426;9.450;2022-08-19T04:13:06;19.30;99.90
16285;DHT22;8250;52.426;9.450;2022-08-19T04:15:39;19.30;99.90
16285;DHT22;8250;52.426;9.450;2022-08-19T04:18:07;19.30;99.90
16285;DHT22;8250;52.426;9.450;2022-08-19T04:20:42;19.30;99.90
16285;DHT22;8250;52.426;9.450;2022-08-19T04:23:10;19.20;99.90
16285;DHT22;8250;52.426;9.450;2022-08-19T04:25:38;19.20;99.90
16285;DHT22;8250;52.426;9.450;2022-08-19T04:28:06;19.20;99.90
16285;DHT22;8250;52.426;9.450;2022-08-19T04:30:40;19.20;99.90
16285;DHT22;8250;52.426;9.450;2022-08-19T04:33:09;19.20;99.90
16285;DHT22;8250;52.426;9.450;2022-08-19T04:35:38;19.20;99.90
16285;DHT22;8250;52.426;9.450;2022-08-19T04:38:06;19.20;99.90
16285;DHT22;8250;52.426;9.450;2022-08-19T04:40:33;19.20;99.90
16285;DHT22;8250;52.426;9.450;2022-08-19T04:43:18;19.10;99.90
16285;DHT22;8250;52.426;9.450;2022-08-19T04:45:46;19.10;99.90
16285;DHT22;8250;52.426;9.450;2022-08-19T04:48:13;19.00;99.90
16285;DHT22;8250;52.426;9.450;2022-08-19T04:50:41;19.00;99.90
16285;DHT22;8250;52.426;9.450;2022-08-19T04:53:09;19.00;99.90
16285;DHT22;8250;52.426;9.450;2022-08-19T04:55:39;19.00;99.90
16285;DHT22;8250;52.426;9.450;2022-08-19T04:58:07;19.00;99.90
16285;DHT22;8250;52.426;9.450;2022-08-19T05:00:34;18.90;99.90
16285;DHT22;8250;52.426;9.450;2022-08-19T05:03:02;19.00;99.90
16285;DHT22;8250;52.426;9.450;2022-08-19T05:05:29;18.90;99.90
16285;DHT22;8250;52.426;9.450;2022-08-19T05:07:57;18.90;99.90
16285;DHT22;8250;52.426;9.450;2022-08-19T05:10:24;18.90;99.90
16285;DHT22;8250;52.426;9.450;2022-08-19T05:12:51;18.90;99.90
16285;DHT22;8250;52.426;9.450;2022-08-19T05:15:18;18.90;99.90
16285;DHT22;8250;52.426;9.450;2022-08-19T05:17:45;18.90;99.90
16285;DHT22;8250;52.426;9.450;2022-08-19T05:20:27;18.80;99.90
16285;DHT22;8250;52.426;9.450;2022-08-19T05:23:12;18.80;99.90
16285;DHT22;8250;52.426;9.450;2022-08-19T05:25:41;18.80;99.90
16285;DHT22;8250;52.426;9.450;2022-08-19T05:28:08;18.80;99.90
16285;DHT22;8250;52.426;9.450;2022-08-19T05:30:35;18.80;99.90
16285;DHT22;8250;52.426;9.450;2022-08-19T05:33:02;18.80;99.90
16285;DHT22;8250;52.426;9.450;2022-08-19T05:35:30;18.80;99.90
16285;DHT22;8250;52.426;9.450;2022-08-19T05:37:57;18.80;99.90
16285;DHT22;8250;52.426;9.450;2022-08-19T05:40:24;18.80;99.90
16285;DHT22;8250;52.426;9.450;2022-08-19T05:42:51;18.80;99.90
16285;DHT22;8250;52.426;9.450;2022-08-19T05:45:19;18.90;99.90
16285;DHT22;8250;52.426;9.450;2022-08-19T05:47:46;19.00;99.90
16285;DHT22;8250;52.426;9.450;2022-08-19T05:50:13;19.10;99.90
16285;DHT22;8250;52.426;9.450;2022-08-19T05:52:42;19.20;99.90
16285;DHT22;8250;52.426;9.450;2022-08-19T05:55:09;19.30;99.90
16285;DHT22;8250;52.426;9.450;2022-08-19T05:57:36;19.50;99.90
16285;DHT22;8250;52.426;9.450;2022-08-19T06:00:04;19.50;99.90
16285;DHT22;8250;52.426;9.450;2022-08-19T06:02:34;19.60;99.90
16285;DHT22;8250;52.426;9.450;2022-08-19T06:05:02;19.60;99.90
16285;DHT22;8250;52.426;9.450;2022-08-19T06:07:29;19.60;99.90
16285;DHT22;8250;52.426;9.450;2022-08-19T06:09:57;19.70;99.90
16285;DHT22;8250;52.426;9.450;2022-08-19T06:12:24;19.70;99.90
16285;DHT22;8250;52.426;9.450;2022-08-19T06:15:00;19.70;99.90
16285;DHT22;8250;52.426;9.450;2022-08-19T06:17:27;19.70;99.90
16285;DHT22;8250;52.426;9.450;2022-08-19T06:19:56;19.70;99.90
16285;DHT22;8250;52.426;9.450;2022-08-19T06:22:24;19.70;99.90
16285;DHT22;8250;52.426;9.450;2022-08-19T06:24:52;19.80;99.90
16285;DHT22;8250;52.426;9.450;2022-08-19T06:27:21;19.90;99.90
16285;DHT22;8250;52.426;9.450;2022-08-19T06:29:48;20.10;99.90
16285;DHT22;8250;52.426;9.450;2022-08-19T06:32:18;20.20;99.90
16285;DHT22;8250;52.426;9.450;2022-08-19T06:34:45;20.40;99.90
16285;DHT22;8250;52.426;9.450;2022-08-19T06:37:13;20.40;99.90
16285;DHT22;8250;52.426;9.450;2022-08-19T06:39:42;20.50;99.90
16285;DHT22;8250;52.426;9.450;2022-08-19T06:42:11;20.50;99.90
16285;DHT22;8250;52.426;9.450;2022-08-19T06:44:40;20.30;99.90
16285;DHT22;8250;52.426;9.450;2022-08-19T06:47:09;20.20;99.90
16285;DHT22;8250;52.426;9.450;2022-08-19T06:49:37;20.10;99.90
16285;DHT22;8250;52.426;9.450;2022-08-19T06:52:05;20.10;99.90
16285;DHT22;8250;52.426;9.450;2022-08-19T06:54:32;20.10;99.90
16285;DHT22;8250;52.426;9.450;2022-08-19T06:57:00;20.00;99.90
16285;DHT22;8250;52.426;9.450;2022-08-19T06:59:28;20.10;99.90
16285;DHT22;8250;52.426;9.450;2022-08-19T07:02:01;20.10;99.90
16285;DHT22;8250;52.426;9.450;2022-08-19T07:04:30;20.20;99.90
16285;DHT22;8250;52.426;9.450;2022-08-19T07:06:59;20.30;99.90
16285;DHT22;8250;52.426;9.450;2022-08-19T07:09:27;20.40;99.90
16285;DHT22;8250;52.426;9.450;2022-08-19T07:11:55;20.60;99.90
16285;DHT22;8250;52.426;9.450;2022-08-19T07:14:25;20.70;99.90
16285;DHT22;8250;52.426;9.450;2022-08-19T07:16:54;20.70;99.90
16285;DHT22;8250;52.426;9.450;2022-08-19T07:19:25;20.70;99.90
16285;DHT22;8250;52.426;9.450;2022-08-19T07:21:53;20.80;99.90
16285;DHT22;8250;52.426;9.450;2022-08-19T07:24:22;20.80;99.90
16285;DHT22;8250;52.426;9.450;2022-08-19T07:26:52;20.90;99.90
16285;DHT22;8250;52.426;9.450;2022-08-19T07:29:21;20.90;99.90
16285;DHT22;8250;52.426;9.450;2022-08-19T07:31:49;20.90;99.90
16285;DHT22;8250;52.426;9.450;2022-08-19T07:34:16;20.90;99.90
16285;DHT22;8250;52.426;9.450;2022-08-19T07:36:45;20.80;99.90
16285;DHT22;8250;52.426;9.450;2022-08-19T07:39:15;20.80;99.90
16285;DHT22;8250;52.426;9.450;2022-08-19T07:41:43;20.80;99.90
16285;DHT22;8250;52.426;9.450;2022-08-19T07:44:12;20.80;99.90
16285;DHT22;8250;52.426;9.450;2022-08-19T07:46:42;20.70;99.90
16285;DHT22;8250;52.426;9.450;2022-08-19T07:49:10;20.80;99.90
16285;DHT22;8250;52.426;9.450;2022-08-19T07:51:47;20.80;99.90
16285;DHT22;8250;52.426;9.450;2022-08-19T07:54:14;20.80;99.90
16285;DHT22;8250;52.426;9.450;2022-08-19T07:56:41;20.80;99.90
16285;DHT22;8250;52.426;9.450;2022-08-19T07:59:08;20.90;99.90
16285;DHT22;8250;52.426;9.450;2022-08-19T08:01:36;20.90;99.90
16285;DHT22;8250;52.426;9.450;2022-08-19T08:04:06;21.00;99.90
16285;DHT22;8250;52.426;9.450;2022-08-19T08:06:52;21.00;99.90
16285;DHT22;8250;52.426;9.450;2022-08-19T08:09:38;21.10;99.90
16285;DHT22;8250;52.426;9.450;2022-08-19T08:12:08;21.20;99.90
16285;DHT22;8250;52.426;9.450;2022-08-19T08:14:38;21.20;99.90
16285;DHT22;8250;52.426;9.450;2022-08-19T08:17:06;21.20;99.90
16285;DHT22;8250;52.426;9.450;2022-08-19T08:19:33;21.20;99.90
16285;DHT22;8250;52.426;9.450;2022-08-19T08:22:02;21.20;99.90
16285;DHT22;8250;52.426;9.450;2022-08-19T08:24:32;21.20;99.90
16285;DHT22;8250;52.426;9.450;2022-08-19T08:27:01;21.30;99.90
16285;DHT22;8250;52.426;9.450;2022-08-19T08:29:30;21.40;99.90
16285;DHT22;8250;52.426;9.450;2022-08-19T08:31:58;21.30;99.90
16285;DHT22;8250;52.426;9.450;2022-08-19T08:34:25;21.40;99.90
16285;DHT22;8250;52.426;9.450;2022-08-19T08:36:52;21.50;99.90
16285;DHT22;8250;52.426;9.450;2022-08-19T08:39:21;21.50;99.90
16285;DHT22;8250;52.426;9.450;2022-08-19T08:41:53;21.50;99.90
16285;DHT22;8250;52.426;9.450;2022-08-19T08:44:32;21.60;99.90
16285;DHT22;8250;52.426;9.450;2022-08-19T08:47:12;21.70;99.90
16285;DHT22;8250;52.426;9.450;2022-08-19T08:49:43;21.70;99.90
16285;DHT22;8250;52.426;9.450;2022-08-19T08:52:17;21.80;99.90
16285;DHT22;8250;52.426;9.450;2022-08-19T08:54:49;21.90;99.90
16285;DHT22;8250;52.426;9.450;2022-08-19T08:57:23;22.00;99.90
16285;DHT22;8250;52.426;9.450;2022-08-19T08:59:54;22.00;99.90
16285;DHT22;8250;52.426;9.450;2022-08-19T09:02:23;22.00;99.90
16285;DHT22;8250;52.426;9.450;2022-08-19T09:04:51;22.00;99.90
16285;DHT22;8250;52.426;9.450;2022-08-19T09:07:29;22.10;99.90
16285;DHT22;8250;52.426;9.450;2022-08-19T09:10:08;22.00;99.90
16285;DHT22;8250;52.426;9.450;2022-08-19T09:12:43;22.10;99.90
16285;DHT22;8250;52.426;9.450;2022-08-19T09:15:15;22.00;99.90
16285;DHT22;8250;52.426;9.450;2022-08-19T09:17:44;22.10;99.90
16285;DHT22;8250;52.426;9.450;2022-08-19T09:20:16;22.10;99.90
16285;DHT22;8250;52.426;9.450;2022-08-19T09:22:44;22.20;99.90
16285;DHT22;8250;52.426;9.450;2022-08-19T09:25:15;22.30;99.90
16285;DHT22;8250;52.426;9.450;2022-08-19T09:27:43;22.40;99.90
16285;DHT22;8250;52.426;9.450;2022-08-19T09:30:14;22.50;99.90
16285;DHT22;8250;52.426;9.450;2022-08-19T09:32:43;22.70;99.90
16285;DHT22;8250;52.426;9.450;2022-08-19T09:35:11;22.80;99.90
16285;DHT22;8250;52.426;9.450;2022-08-19T09:37:40;22.70;99.90
16285;DHT22;8250;52.426;9.450;2022-08-19T09:40:09;22.80;99.90
16285;DHT22;8250;52.426;9.450;2022-08-19T09:42:38;22.70;99.90
16285;DHT22;8250;52.426;9.450;2022-08-19T09:45:06;22.70;99.90
16285;DHT22;8250;52.426;9.450;2022-08-19T09:47:33;22.70;99.90
16285;DHT22;8250;52.426;9.450;2022-08-19T09:50:01;22.70;99.90
16285;DHT22;8250;52.426;9.450;2022-08-19T09:52:29;22.80;99.90
16285;DHT22;8250;52.426;9.450;2022-08-19T09:54:56;22.80;99.90
16285;DHT22;8250;52.426;9.450;2022-08-19T09:57:22;22.80;99.90
16285;DHT22;8250;52.426;9.450;2022-08-19T09:59:51;22.80;99.90
16285;DHT22;8250;52.426;9.450;2022-08-19T10:02:19;22.90;99.90
16285;DHT22;8250;52.426;9.450;2022-08-19T10:04:45;23.00;99.90
16285;DHT22;8250;52.426;9.450;2022-08-19T10:07:30;23.10;99.90
16285;DHT22;8250;52.426;9.450;2022-08-19T10:09:57;23.10;99.90
16285;DHT22;8250;52.426;9.450;2022-08-19T10:12:24;23.10;99.90
16285;DHT22;8250;52.426;9.450;2022-08-19T10:14:53;23.20;99.90
16285;DHT22;8250;52.426;9.450;2022-08-19T10:17:21;23.20;99.90
16285;DHT22;8250;52.426;9.450;2022-08-19T10:19:48;23.30;99.90
16285;DHT22;8250;52.426;9.450;2022-08-19T10:22:14;23.10;99.90
16285;DHT22;8250;52.426;9.450;2022-08-19T10:24:41;23.10;99.90
16285;DHT22;8250;52.426;9.450;2022-08-19T10:27:08;23.20;99.90
16285;DHT22;8250;52.426;9.450;2022-08-19T10:29:35;23.20;99.90
16285;DHT22;8250;52.426;9.450;2022-08-19T10:32:06;23.20;99.90
16285;DHT22;8250;52.426;9.450;2022-08-19T10:34:35;23.20;99.90
16285;DHT22;8250;52.426;9.450;2022-08-19T10:37:04;23.30;99.90
16285;DHT22;8250;52.426;9.450;2022-08-19T10:39:32;23.30;99.90
16285;DHT22;8250;52.426;9.450;2022-08-19T10:42:04;23.30;99.90
16285;DHT22;8250;52.426;9.450;2022-08-19T10:44:33;23.30;99.90
16285;DHT22;8250;52.426;9.450;2022-08-19T10:47:01;23.40;99.90
16285;DHT22;8250;52.426;9.450;2022-08-19T10:49:30;23.30;99.90
16285;DHT22;8250;52.426;9.450;2022-08-19T10:51:57;23.40;99.90
16285;DHT22;8250;52.426;9.450;2022-08-19T10:54:42;23.30;99.90
16285;DHT22;8250;52.426;9.450;2022-08-19T10:57:35;23.30;99.90
16285;DHT22;8250;52.426;9.450;2022-08-19T11:00:03;23.30;99.90
16285;DHT22;8250;52.426;9.450;2022-08-19T11:02:30;23.30;99.90
16285;DHT22;8250;52.426;9.450;2022-08-19T11:04:59;23.30;99.90
16285;DHT22;8250;52.426;9.450;2022-08-19T11:07:26;23.30;99.90
16285;DHT22;8250;52.426;9.450;2022-08-19T11:09:53;23.40;99.90
16285;DHT22;8250;52.426;9.450;2022-08-19T11:12:20;23.50;99.90
16285;DHT22;8250;52.426;9.450;2022-08-19T11:14:47;23.60;99.90
16285;DHT22;8250;52.426;9.450;2022-08-19T11:17:15;23.70;99.90
16285;DHT22;8250;52.426;9.450;2022-08-19T11:19:42;23.70;99.90
16285;DHT22;8250;52.426;9.450;2022-08-19T11:22:10;23.70;99.90
16285;DHT22;8250;52.426;9.450;2022-08-19T11:24:37;23.70;99.90
16285;DHT22;8250;52.426;9.450;2022-08-19T11:27:08;23.90;99.90
16285;DHT22;8250;52.426;9.450;2022-08-19T11:29:37;24.00;99.90
16285;DHT22;8250;52.426;9.450;2022-08-19T11:32:09;24.10;99.90
16285;DHT22;8250;52.426;9.450;2022-08-19T11:34:36;24.30;99.90
16285;DHT22;8250;52.426;9.450;2022-08-19T11:37:03;24.50;99.90
16285;DHT22;8250;52.426;9.450;2022-08-19T11:39:33;25.00;99.90
16285;DHT22;8250;52.426;9.450;2022-08-19T11:42:03;25.90;99.90
16285;DHT22;8250;52.426;9.450;2022-08-19T11:44:51;27.00;99.90
16285;DHT22;8250;52.426;9.450;2022-08-19T11:47:19;28.00;97.70
16285;DHT22;8250;52.426;9.450;2022-08-19T11:49:46;28.50;96.40
16285;DHT22;8250;52.426;9.450;2022-08-19T11:52:13;28.60;95.20
16285;DHT22;8250;52.426;9.450;2022-08-19T11:54:42;28.20;94.30
16285;DHT22;8250;52.426;9.450;2022-08-19T11:57:09;28.00;94.00
16285;DHT22;8250;52.426;9.450;2022-08-19T11:59:36;27.60;94.20
16285;DHT22;8250;52.426;9.450;2022-08-19T12:02:03;27.30;94.50
16285;DHT22;8250;52.426;9.450;2022-08-19T12:04:30;26.90;95.10
16285;DHT22;8250;52.426;9.450;2022-08-19T12:06:56;26.80;95.50
16285;DHT22;8250;52.426;9.450;2022-08-19T12:09:23;26.60;95.60
16285;DHT22;8250;52.426;9.450;2022-08-19T12:11:52;26.50;95.50
16285;DHT22;8250;52.426;9.450;2022-08-19T12:14:19;26.50;95.90
16285;DHT22;8250;52.426;9.450;2022-08-19T12:16:46;26.40;95.50
16285;DHT22;8250;52.426;9.450;2022-08-19T12:19:14;26.50;95.10
16285;DHT22;8250;52.426;9.450;2022-08-19T12:21:41;26.40;95.40
16285;DHT22;8250;52.426;9.450;2022-08-19T12:24:08;26.40;94.70
16285;DHT22;8250;52.426;9.450;2022-08-19T12:26:35;26.40;95.10
16285;DHT22;8250;52.426;9.450;2022-08-19T12:29:04;26.40;94.80
16285;DHT22;8250;52.426;9.450;2022-08-19T12:31:31;26.40;94.20
16285;DHT22;8250;52.426;9.450;2022-08-19T12:33:58;26.40;93.80
16285;DHT22;8250;52.426;9.450;2022-08-19T12:36:28;26.30;94.20
16285;DHT22;8250;52.426;9.450;2022-08-19T12:38:55;26.40;93.80
16285;DHT22;8250;52.426;9.450;2022-08-19T12:41:24;26.40;94.30
16285;DHT22;8250;52.426;9.450;2022-08-19T12:43:51;26.40;93.90
16285;DHT22;8250;52.426;9.450;2022-08-19T12:46:19;26.40;91.90
16285;DHT22;8250;52.426;9.450;2022-08-19T12:48:46;26.30;92.60
16285;DHT22;8250;52.426;9.450;2022-08-19T12:51:16;26.40;92.60
16285;DHT22;8250;52.426;9.450;2022-08-19T12:53:44;26.30;91.80
16285;DHT22;8250;52.426;9.450;2022-08-19T12:56:12;26.40;91.80
16285;DHT22;8250;52.426;9.450;2022-08-19T12:58:42;26.40;91.80
16285;DHT22;8250;52.426;9.450;2022-08-19T13:01:10;26.40;91.80
16285;DHT22;8250;52.426;9.450;2022-08-19T13:03:39;26.50;91.10
16285;DHT22;8250;52.426;9.450;2022-08-19T13:06:08;26.50;90.90
16285;DHT22;8250;52.426;9.450;2022-08-19T13:08:36;26.50;90.50
16285;DHT22;8250;52.426;9.450;2022-08-19T13:11:10;26.60;90.40
16285;DHT22;8250;52.426;9.450;2022-08-19T13:13:40;26.60;90.40
16285;DHT22;8250;52.426;9.450;2022-08-19T13:16:08;26.70;89.80
16285;DHT22;8250;52.426;9.450;2022-08-19T13:18:37;26.70;89.30
16285;DHT22;8250;52.426;9.450;2022-08-19T13:21:07;26.60;89.10
16285;DHT22;8250;52.426;9.450;2022-08-19T13:23:35;26.70;89.30
16285;DHT22;8250;52.426;9.450;2022-08-19T13:26:04;26.70;89.10
16285;DHT22;8250;52.426;9.450;2022-08-19T13:28:32;26.70;90.40
16285;DHT22;8250;52.426;9.450;2022-08-19T13:31:15;26.80;89.40
16285;DHT22;8250;52.426;9.450;2022-08-19T13:34:00;26.80;89.70
16285;DHT22;8250;52.426;9.450;2022-08-19T13:36:28;26.70;88.20
16285;DHT22;8250;52.426;9.450;2022-08-19T13:38:55;26.80;89.00
16285;DHT22;8250;52.426;9.450;2022-08-19T13:41:23;26.80;89.50
16285;DHT22;8250;52.426;9.450;2022-08-19T13:43:50;26.70;87.30
16285;DHT22;8250;52.426;9.450;2022-08-19T13:46:17;26.80;88.10
16285;DHT22;8250;52.426;9.450;2022-08-19T13:48:45;26.80;86.60
16285;DHT22;8250;52.426;9.450;2022-08-19T13:51:14;26.90;86.70
16285;DHT22;8250;52.426;9.450;2022-08-19T13:53:43;26.90;86.70
16285;DHT22;8250;52.426;9.450;2022-08-19T13:56:13;26.90;88.20
16285;DHT22;8250;52.426;9.450;2022-08-19T13:58:41;26.90;85.70
16285;DHT22;8250;52.426;9.450;2022-08-19T14:01:08;27.00;86.30
16285;DHT22;8250;52.426;9.450;2022-08-19T14:03:36;27.10;85.10
16285;DHT22;8250;52.426;9.450;2022-08-19T14:06:03;27.10;85.40
16285;DHT22;8250;52.426;9.450;2022-08-19T14:08:30;27.10;85.40
16285;DHT22;8250;52.426;9.450;2022-08-19T14:10:59;27.10;85.70
16285;DHT22;8250;52.426;9.450;2022-08-19T14:13:26;27.10;84.60
16285;DHT22;8250;52.426;9.450;2022-08-19T14:15:53;27.10;84.30
16285;DHT22;8250;52.426;9.450;2022-08-19T14:18:20;27.00;82.40
16285;DHT22;8250;52.426;9.450;2022-08-19T14:20:47;27.00;83.40
16285;DHT22;8250;52.426;9.450;2022-08-19T14:23:14;27.00;83.90
16285;DHT22;8250;52.426;9.450;2022-08-19T14:25:41;27.00;82.60
16285;DHT22;8250;52.426;9.450;2022-08-19T14:28:09;27.00;83.10
16285;DHT22;8250;52.426;9.450;2022-08-19T14:30:38;27.00;81.90
16285;DHT22;8250;52.426;9.450;2022-08-19T14:33:05;27.00;80.50
16285;DHT22;8250;52.426;9.450;2022-08-19T14:35:34;27.20;81.20
16285;DHT22;8250;52.426;9.450;2022-08-19T14:38:02;27.20;80.40
16285;DHT22;8250;52.426;9.450;2022-08-19T14:40:29;27.10;80.00
16285;DHT22;8250;52.426;9.450;2022-08-19T14:42:59;27.00;78.30
16285;DHT22;8250;52.426;9.450;2022-08-19T14:45:31;27.00;79.90
16285;DHT22;8250;52.426;9.450;2022-08-19T14:47:58;26.90;79.60
16285;DHT22;8250;52.426;9.450;2022-08-19T14:50:26;27.00;80.00
16285;DHT22;8250;52.426;9.450;2022-08-19T14:52:58;27.10;80.00
16285;DHT22;8250;52.426;9.450;2022-08-19T14:55:25;27.20;80.60
16285;DHT22;8250;52.426;9.450;2022-08-19T14:57:52;27.20;80.80
16285;DHT22;8250;52.426;9.450;2022-08-19T15:00:19;27.20;79.50
16285;DHT22;8250;52.426;9.450;2022-08-19T15:02:47;27.20;78.50
16285;DHT22;8250;52.426;9.450;2022-08-19T15:05:14;27.10;78.70
16285;DHT22;8250;52.426;9.450;2022-08-19T15:07:42;27.10;80.60
16285;DHT22;8250;52.426;9.450;2022-08-19T15:10:10;27.10;78.60
16285;DHT22;8250;52.426;9.450;2022-08-19T15:12:38;27.20;79.10
16285;DHT22;8250;52.426;9.450;2022-08-19T15:15:07;27.20;79.10
16285;DHT22;8250;52.426;9.450;2022-08-19T15:17:34;27.20;79.40
16285;DHT22;8250;52.426;9.450;2022-08-19T15:20:05;27.20;79.60
16285;DHT22;8250;52.426;9.450;2022-08-19T15:22:33;27.30;80.30
16285;DHT22;8250;52.426;9.450;2022-08-19T15:25:01;27.30;79.90
16285;DHT22;8250;52.426;9.450;2022-08-19T15:27:28;27.30;78.60
16285;DHT22;8250;52.426;9.450;2022-08-19T15:29:55;27.30;79.00
16285;DHT22;8250;52.426;9.450;2022-08-19T15:32:22;27.30;78.80
16285;DHT22;8250;52.426;9.450;2022-08-19T15:34:51;27.30;78.90
16285;DHT22;8250;52.426;9.450;2022-08-19T15:37:20;27.30;79.00
16285;DHT22;8250;52.426;9.450;2022-08-19T15:39:47;27.20;78.00
16285;DHT22;8250;52.426;9.450;2022-08-19T15:42:14;27.30;78.10
16285;DHT22;8250;52.426;9.450;2022-08-19T15:44:41;27.20;78.50
16285;DHT22;8250;52.426;9.450;2022-08-19T15:47:08;27.20;79.40
16285;DHT22;8250;52.426;9.450;2022-08-19T15:49:36;27.20;79.30
16285;DHT22;8250;52.426;9.450;2022-08-19T15:52:03;27.10;77.30
16285;DHT22;8250;52.426;9.450;2022-08-19T15:54:33;27.10;77.10